Terminal Aerodrome Forecast
Issued by NWS

Home | Current Version | Previous Version | Text Only | Print | Product List | Glossary On
Versions: 1 2 3 4 5 6 7 8 9 10 11 12 13 14 15
000
FTAK31 PAJN 212335
TAFAGY
TAF
PAGY 212335Z 2200/2224 04005KT P6SM BKN120
     FM220300 VRB03KT P6SM BKN070 BKN100
     FM221500 21015KT P6SM BKN060 OVC080
     FM221900 21018KT 6SM -SN BKN060 OVC080
      AMD LTD TO CLD VIS AND WIND=

USA.gov is the U.S. government's official web portal to all federal, state and local government web resources and services.